Terminal Aerodrome Forecast
Issued by NWS Des Moines, IA

Home | Current Version | Previous Version | Text Only | Print | Product List | Glossary On
Versions: 1 2 3 4 5 6 7 8 9 10 11 12 13 14 15 16 17 18 19 20 21 22 23 24 25 26 27 28
000
FTUS43 KDMX 181124
TAFDSM
TAF
KDSM 181124Z 1812/1912 12008KT P6SM OVC050
     FM181500 12012KT P6SM VCSH SCT030 BKN050
     FM181900 13012KT 6SM RA BR SCT010 BKN020
     FM190600 15008KT 5SM RA BR SCT010 BKN015=

USA.gov is the U.S. government's official web portal to all federal, state and local government web resources and services.